KGLY Airport (Clinton Rgnl) Information

FAA: GLY - ICAO: KGLY

KGLY Airport Location

State Missouri
County Henry
City Clinton
KGLY Airport is 4 miles east of Clinton, MO.
Latitude 38-21-16.9210N
Longitude 093-40-45.0730W
Elevation 822ft

KGLY Airport METARs

METAR KGLY 180655Z AUTO 18004KT 10SM CLR 12/07 A3013 RMK AO2
Altimeter 30.13"
Temperature 12.0°C (53.6°F)
Wind 180° at 4KT
Clouds Skies are clear.
Visibility 10.0mi
Time observed: 2021-10-18T06:55:00Z

KGLY Airport Details

Status Operational
Activation N/A
Ownership Public
Usage Public
Chart KANSAS CITY
ATC on-site No
Beacon schedule sunset-sunrise
Beacon color clear green

KGLY Airport Contacts

Owner CITY OF CLINTON
Owner address 105 E. OHIO, CLINTON, MO 64735
Owner phone 660-885-6121
Manager DAVID WALLER
Manager address PO BOX 561, CARTHAGE, MO 64836
Manager phone 417-358-3035

KGLY Airport (Clinton Rgnl) Radio Frequencies

KGLY (Airport) Radio Frequencies

UNICOM 122.8
Common traffic advisory frequency (CTAF) 122.8